sensor_id;sensor_type;location;lat;lon;timestamp;pressure;altitude;pressure_sealevel;temperature;humidity
163;BME280;3946;48.958;8.284;2024-02-14T00:01:37;100975.00;;;4.79;100.00
163;BME280;3946;48.958;8.284;2024-02-14T00:04:23;100974.50;;;4.96;100.00
163;BME280;3946;48.958;8.284;2024-02-14T00:07:09;100982.50;;;5.15;100.00
163;BME280;3946;48.958;8.284;2024-02-14T00:09:55;100980.66;;;5.18;100.00
163;BME280;3946;48.958;8.284;2024-02-14T00:12:40;100981.22;;;5.28;100.00
163;BME280;3946;48.958;8.284;2024-02-14T00:15:26;100973.81;;;5.19;100.00
163;BME280;3946;48.958;8.284;2024-02-14T00:18:11;100984.13;;;5.17;100.00
163;BME280;3946;48.958;8.284;2024-02-14T00:20:56;100985.72;;;5.20;100.00
163;BME280;3946;48.958;8.284;2024-02-14T00:23:43;100985.75;;;5.46;100.00
163;BME280;3946;48.958;8.284;2024-02-14T00:26:28;100982.94;;;5.27;100.00
163;BME280;3946;48.958;8.284;2024-02-14T00:29:14;100977.09;;;5.22;100.00
163;BME280;3946;48.958;8.284;2024-02-14T00:31:59;100978.31;;;5.37;100.00
163;BME280;3946;48.958;8.284;2024-02-14T00:34:44;100985.19;;;5.37;100.00
163;BME280;3946;48.958;8.284;2024-02-14T00:37:30;100978.94;;;5.45;100.00
163;BME280;3946;48.958;8.284;2024-02-14T00:40:18;100980.16;;;5.60;100.00
163;BME280;3946;48.958;8.284;2024-02-14T00:43:04;100979.50;;;5.53;100.00
163;BME280;3946;48.958;8.284;2024-02-14T00:45:49;100976.38;;;5.70;100.00
163;BME280;3946;48.958;8.284;2024-02-14T00:48:34;100973.56;;;5.78;100.00
163;BME280;3946;48.958;8.284;2024-02-14T00:51:21;100967.00;;;5.69;100.00
163;BME280;3946;48.958;8.284;2024-02-14T00:54:07;100966.53;;;5.58;100.00
163;BME280;3946;48.958;8.284;2024-02-14T00:56:53;100960.44;;;5.60;100.00
163;BME280;3946;48.958;8.284;2024-02-14T00:59:39;100964.28;;;5.74;100.00
163;BME280;3946;48.958;8.284;2024-02-14T01:02:24;100957.91;;;5.59;100.00
163;BME280;3946;48.958;8.284;2024-02-14T01:05:10;100951.75;;;5.65;100.00
163;BME280;3946;48.958;8.284;2024-02-14T01:07:55;100954.22;;;5.68;100.00
163;BME280;3946;48.958;8.284;2024-02-14T01:10:41;100947.97;;;5.75;100.00
163;BME280;3946;48.958;8.284;2024-02-14T01:13:27;100948.47;;;5.59;100.00
163;BME280;3946;48.958;8.284;2024-02-14T01:16:13;100948.34;;;5.64;100.00
163;BME280;3946;48.958;8.284;2024-02-14T01:18:59;100957.19;;;5.55;100.00
163;BME280;3946;48.958;8.284;2024-02-14T01:21:44;100946.19;;;5.52;100.00
163;BME280;3946;48.958;8.284;2024-02-14T01:24:32;100952.81;;;5.57;100.00
163;BME280;3946;48.958;8.284;2024-02-14T01:27:17;100934.72;;;5.36;100.00
163;BME280;3946;48.958;8.284;2024-02-14T01:30:05;100934.78;;;5.34;100.00
163;BME280;3946;48.958;8.284;2024-02-14T01:32:50;100939.63;;;5.17;100.00
163;BME280;3946;48.958;8.284;2024-02-14T01:35:37;100930.00;;;5.22;100.00
163;BME280;3946;48.958;8.284;2024-02-14T01:38:22;100920.13;;;5.10;100.00
163;BME280;3946;48.958;8.284;2024-02-14T01:41:07;100922.22;;;4.99;100.00
163;BME280;3946;48.958;8.284;2024-02-14T01:43:52;100907.38;;;4.80;100.00
163;BME280;3946;48.958;8.284;2024-02-14T01:46:39;100921.81;;;4.84;100.00
163;BME280;3946;48.958;8.284;2024-02-14T01:49:25;100922.63;;;4.86;100.00
163;BME280;3946;48.958;8.284;2024-02-14T01:52:11;100918.31;;;4.87;100.00
163;BME280;3946;48.958;8.284;2024-02-14T01:54:56;100918.19;;;4.90;100.00
163;BME280;3946;48.958;8.284;2024-02-14T01:57:42;100913.41;;;4.79;100.00
163;BME280;3946;48.958;8.284;2024-02-14T02:00:28;100886.91;;;4.51;100.00
163;BME280;3946;48.958;8.284;2024-02-14T02:03:19;100903.06;;;4.54;100.00
163;BME280;3946;48.958;8.284;2024-02-14T02:06:05;100907.34;;;4.54;100.00
163;BME280;3946;48.958;8.284;2024-02-14T02:08:50;100902.91;;;4.59;100.00
163;BME280;3946;48.958;8.284;2024-02-14T02:11:42;100897.59;;;4.65;100.00
163;BME280;3946;48.958;8.284;2024-02-14T02:14:28;100896.19;;;4.55;100.00
163;BME280;3946;48.958;8.284;2024-02-14T02:17:13;100894.69;;;4.48;100.00
163;BME280;3946;48.958;8.284;2024-02-14T02:20:03;100884.84;;;4.34;100.00
163;BME280;3946;48.958;8.284;2024-02-14T02:22:52;100884.84;;;4.34;100.00
163;BME280;3946;48.958;8.284;2024-02-14T02:25:37;100884.09;;;4.31;100.00
163;BME280;3946;48.958;8.284;2024-02-14T02:28:22;100881.00;;;4.19;100.00
163;BME280;3946;48.958;8.284;2024-02-14T02:31:08;100882.00;;;4.14;100.00
163;BME280;3946;48.958;8.284;2024-02-14T02:33:54;100879.50;;;4.12;100.00
163;BME280;3946;48.958;8.284;2024-02-14T02:36:40;100885.97;;;4.24;100.00
163;BME280;3946;48.958;8.284;2024-02-14T02:39:26;100884.50;;;4.17;100.00
163;BME280;3946;48.958;8.284;2024-02-14T02:42:11;100887.03;;;4.18;100.00
163;BME280;3946;48.958;8.284;2024-02-14T02:44:58;100896.19;;;4.26;100.00
163;BME280;3946;48.958;8.284;2024-02-14T02:47:43;100895.44;;;4.51;100.00
163;BME280;3946;48.958;8.284;2024-02-14T02:50:28;100901.38;;;4.81;100.00
163;BME280;3946;48.958;8.284;2024-02-14T02:53:14;100902.22;;;5.08;100.00
163;BME280;3946;48.958;8.284;2024-02-14T02:56:00;100898.81;;;5.34;100.00
163;BME280;3946;48.958;8.284;2024-02-14T02:58:46;100898.63;;;5.39;100.00
163;BME280;3946;48.958;8.284;2024-02-14T03:01:35;100894.94;;;5.47;100.00
163;BME280;3946;48.958;8.284;2024-02-14T03:04:20;100895.59;;;5.52;100.00
163;BME280;3946;48.958;8.284;2024-02-14T03:07:07;100895.28;;;5.61;100.00
163;BME280;3946;48.958;8.284;2024-02-14T03:09:53;100893.72;;;5.82;100.00
163;BME280;3946;48.958;8.284;2024-02-14T03:12:39;100893.25;;;5.96;100.00
163;BME280;3946;48.958;8.284;2024-02-14T03:15:25;100892.47;;;5.94;100.00
163;BME280;3946;48.958;8.284;2024-02-14T03:18:10;100899.19;;;5.98;100.00
163;BME280;3946;48.958;8.284;2024-02-14T03:20:55;100900.06;;;5.97;100.00
163;BME280;3946;48.958;8.284;2024-02-14T03:23:41;100898.44;;;5.94;100.00
163;BME280;3946;48.958;8.284;2024-02-14T03:26:29;100901.06;;;5.93;100.00
163;BME280;3946;48.958;8.284;2024-02-14T03:29:19;100901.69;;;6.00;100.00
163;BME280;3946;48.958;8.284;2024-02-14T03:32:04;100895.25;;;5.86;100.00
163;BME280;3946;48.958;8.284;2024-02-14T03:34:52;100904.69;;;5.86;100.00
163;BME280;3946;48.958;8.284;2024-02-14T03:37:37;100898.66;;;5.87;100.00
163;BME280;3946;48.958;8.284;2024-02-14T03:40:23;100894.03;;;5.98;100.00
163;BME280;3946;48.958;8.284;2024-02-14T03:43:08;100894.66;;;6.28;100.00
163;BME280;3946;48.958;8.284;2024-02-14T03:45:57;100893.97;;;6.23;100.00
163;BME280;3946;48.958;8.284;2024-02-14T03:48:43;100891.13;;;6.30;100.00
163;BME280;3946;48.958;8.284;2024-02-14T03:51:28;100893.06;;;6.47;100.00
163;BME280;3946;48.958;8.284;2024-02-14T03:54:13;100891.91;;;6.32;100.00
163;BME280;3946;48.958;8.284;2024-02-14T03:56:59;100887.97;;;6.46;100.00
163;BME280;3946;48.958;8.284;2024-02-14T03:59:44;100874.72;;;6.55;100.00
163;BME280;3946;48.958;8.284;2024-02-14T04:02:31;100892.72;;;6.78;100.00
163;BME280;3946;48.958;8.284;2024-02-14T04:05:16;100898.22;;;6.91;100.00
163;BME280;3946;48.958;8.284;2024-02-14T04:08:02;100894.06;;;7.09;100.00
163;BME280;3946;48.958;8.284;2024-02-14T04:10:47;100898.94;;;7.15;100.00
163;BME280;3946;48.958;8.284;2024-02-14T04:13:34;100899.25;;;7.29;100.00
163;BME280;3946;48.958;8.284;2024-02-14T04:16:23;100894.53;;;7.38;100.00
163;BME280;3946;48.958;8.284;2024-02-14T04:19:10;100888.84;;;7.51;100.00
163;BME280;3946;48.958;8.284;2024-02-14T04:21:56;100888.13;;;7.67;100.00
163;BME280;3946;48.958;8.284;2024-02-14T04:24:42;100897.84;;;7.81;100.00
163;BME280;3946;48.958;8.284;2024-02-14T04:27:27;100891.47;;;7.90;100.00
163;BME280;3946;48.958;8.284;2024-02-14T04:30:12;100895.88;;;8.06;100.00
163;BME280;3946;48.958;8.284;2024-02-14T04:32:58;100897.72;;;8.23;100.00
163;BME280;3946;48.958;8.284;2024-02-14T04:35:44;100896.28;;;8.36;99.71
163;BME280;3946;48.958;8.284;2024-02-14T04:38:30;100896.84;;;8.43;99.11
163;BME280;3946;48.958;8.284;2024-02-14T04:41:15;100892.53;;;8.44;98.07
163;BME280;3946;48.958;8.284;2024-02-14T04:44:00;100896.66;;;8.65;96.28
163;BME280;3946;48.958;8.284;2024-02-14T04:46:45;100887.16;;;8.65;96.25
163;BME280;3946;48.958;8.284;2024-02-14T04:49:31;100896.59;;;8.66;96.88
163;BME280;3946;48.958;8.284;2024-02-14T04:52:18;100891.00;;;8.75;95.71
163;BME280;3946;48.958;8.284;2024-02-14T04:55:04;100891.28;;;8.69;95.71
163;BME280;3946;48.958;8.284;2024-02-14T04:57:49;100878.44;;;8.68;95.27
163;BME280;3946;48.958;8.284;2024-02-14T05:00:35;100880.81;;;8.72;95.28
163;BME280;3946;48.958;8.284;2024-02-14T05:03:20;100882.19;;;8.80;94.81
163;BME280;3946;48.958;8.284;2024-02-14T05:06:09;100877.31;;;8.73;94.12
163;BME280;3946;48.958;8.284;2024-02-14T05:08:56;100889.34;;;8.74;94.63
163;BME280;3946;48.958;8.284;2024-02-14T05:11:41;100881.59;;;8.74;95.03
163;BME280;3946;48.958;8.284;2024-02-14T05:14:27;100895.03;;;8.81;94.05
163;BME280;3946;48.958;8.284;2024-02-14T05:17:15;100891.03;;;8.93;93.73
163;BME280;3946;48.958;8.284;2024-02-14T05:20:00;100894.81;;;8.86;93.73
163;BME280;3946;48.958;8.284;2024-02-14T05:22:46;100887.97;;;8.85;94.36
163;BME280;3946;48.958;8.284;2024-02-14T05:25:33;100882.88;;;8.83;93.53
163;BME280;3946;48.958;8.284;2024-02-14T05:28:18;100875.72;;;8.71;94.72
163;BME280;3946;48.958;8.284;2024-02-14T05:31:05;100883.16;;;8.77;94.39
163;BME280;3946;48.958;8.284;2024-02-14T05:33:51;100890.84;;;8.78;93.79
163;BME280;3946;48.958;8.284;2024-02-14T05:36:37;100888.44;;;8.75;94.51
163;BME280;3946;48.958;8.284;2024-02-14T05:39:22;100881.03;;;8.68;94.91
163;BME280;3946;48.958;8.284;2024-02-14T05:42:08;100893.81;;;8.71;94.91
163;BME280;3946;48.958;8.284;2024-02-14T05:44:54;100890.63;;;8.83;93.96
163;BME280;3946;48.958;8.284;2024-02-14T05:47:39;100886.38;;;8.82;93.96
163;BME280;3946;48.958;8.284;2024-02-14T05:50:24;100880.28;;;8.83;94.18
163;BME280;3946;48.958;8.284;2024-02-14T05:53:10;100892.22;;;8.86;94.15
163;BME280;3946;48.958;8.284;2024-02-14T05:55:56;100896.84;;;8.79;94.56
163;BME280;3946;48.958;8.284;2024-02-14T05:58:42;100893.63;;;8.93;94.22
163;BME280;3946;48.958;8.284;2024-02-14T06:01:28;100899.84;;;8.89;93.65
163;BME280;3946;48.958;8.284;2024-02-14T06:04:13;100901.38;;;8.93;92.92
163;BME280;3946;48.958;8.284;2024-02-14T06:06:59;100907.06;;;8.99;92.94
163;BME280;3946;48.958;8.284;2024-02-14T06:09:44;100909.44;;;9.04;92.27
163;BME280;3946;48.958;8.284;2024-02-14T06:12:30;100914.53;;;9.05;92.52
163;BME280;3946;48.958;8.284;2024-02-14T06:15:17;100907.47;;;9.09;92.31
163;BME280;3946;48.958;8.284;2024-02-14T06:18:02;100910.41;;;9.01;92.06
163;BME280;3946;48.958;8.284;2024-02-14T06:20:48;100918.81;;;9.06;91.80
163;BME280;3946;48.958;8.284;2024-02-14T06:23:33;100917.97;;;9.06;91.28
163;BME280;3946;48.958;8.284;2024-02-14T06:26:20;100923.91;;;9.08;91.78
163;BME280;3946;48.958;8.284;2024-02-14T06:29:06;100939.09;;;9.14;91.42
163;BME280;3946;48.958;8.284;2024-02-14T06:31:52;100941.22;;;9.06;92.64
163;BME280;3946;48.958;8.284;2024-02-14T06:34:38;100950.78;;;9.04;93.43
163;BME280;3946;48.958;8.284;2024-02-14T06:37:23;100951.56;;;9.06;94.00
163;BME280;3946;48.958;8.284;2024-02-14T06:40:08;100951.91;;;8.98;95.21
163;BME280;3946;48.958;8.284;2024-02-14T06:42:54;100950.31;;;8.96;95.63
163;BME280;3946;48.958;8.284;2024-02-14T06:45:39;100948.31;;;8.84;96.39
163;BME280;3946;48.958;8.284;2024-02-14T06:48:26;100952.50;;;8.86;97.39
163;BME280;3946;48.958;8.284;2024-02-14T06:51:12;100956.13;;;8.82;98.26
163;BME280;3946;48.958;8.284;2024-02-14T06:53:57;100961.22;;;9.02;99.06
163;BME280;3946;48.958;8.284;2024-02-14T06:56:42;100963.41;;;9.10;98.13
163;BME280;3946;48.958;8.284;2024-02-14T06:59:27;100947.25;;;8.88;97.75
163;BME280;3946;48.958;8.284;2024-02-14T07:02:13;100968.72;;;8.90;99.00
163;BME280;3946;48.958;8.284;2024-02-14T07:05:00;100963.25;;;8.77;97.89
163;BME280;3946;48.958;8.284;2024-02-14T07:07:46;100960.75;;;8.75;98.71
163;BME280;3946;48.958;8.284;2024-02-14T07:10:31;100960.31;;;8.85;97.63
163;BME280;3946;48.958;8.284;2024-02-14T07:13:16;100953.63;;;8.81;98.09
163;BME280;3946;48.958;8.284;2024-02-14T07:16:02;100940.94;;;8.93;98.20
163;BME280;3946;48.958;8.284;2024-02-14T07:18:49;100946.84;;;8.78;98.41
163;BME280;3946;48.958;8.284;2024-02-14T07:21:36;100956.84;;;8.86;98.23
163;BME280;3946;48.958;8.284;2024-02-14T07:24:22;100972.97;;;8.91;98.47
163;BME280;3946;48.958;8.284;2024-02-14T07:27:07;100982.41;;;8.92;97.69
163;BME280;3946;48.958;8.284;2024-02-14T07:29:53;100984.69;;;8.98;96.85
163;BME280;3946;48.958;8.284;2024-02-14T07:32:38;100988.09;;;8.98;97.50
163;BME280;3946;48.958;8.284;2024-02-14T07:35:23;100993.53;;;9.11;97.66
163;BME280;3946;48.958;8.284;2024-02-14T07:38:10;100999.53;;;9.11;97.62
163;BME280;3946;48.958;8.284;2024-02-14T07:40:56;100994.81;;;9.02;97.82
163;BME280;3946;48.958;8.284;2024-02-14T07:43:41;100998.69;;;9.11;97.69
163;BME280;3946;48.958;8.284;2024-02-14T07:46:27;101011.78;;;9.08;97.42
163;BME280;3946;48.958;8.284;2024-02-14T07:49:13;101001.34;;;9.09;97.98
163;BME280;3946;48.958;8.284;2024-02-14T07:51:58;101011.53;;;9.12;97.74
163;BME280;3946;48.958;8.284;2024-02-14T07:54:45;101004.16;;;9.05;98.39
163;BME280;3946;48.958;8.284;2024-02-14T07:57:30;101009.13;;;9.27;98.00
163;BME280;3946;48.958;8.284;2024-02-14T08:00:16;101006.38;;;9.48;96.22
163;BME280;3946;48.958;8.284;2024-02-14T08:03:06;101007.84;;;9.54;95.97
163;BME280;3946;48.958;8.284;2024-02-14T08:05:51;101009.19;;;9.61;95.13
163;BME280;3946;48.958;8.284;2024-02-14T08:08:37;101010.56;;;9.68;94.83
163;BME280;3946;48.958;8.284;2024-02-14T08:11:23;101015.00;;;9.83;94.32
163;BME280;3946;48.958;8.284;2024-02-14T08:14:09;101011.78;;;9.78;93.79
163;BME280;3946;48.958;8.284;2024-02-14T08:16:55;101013.16;;;9.86;92.52
163;BME280;3946;48.958;8.284;2024-02-14T08:19:40;101009.88;;;9.82;92.72
163;BME280;3946;48.958;8.284;2024-02-14T08:22:26;101009.75;;;9.85;91.97
163;BME280;3946;48.958;8.284;2024-02-14T08:25:11;101007.38;;;9.80;92.04
163;BME280;3946;48.958;8.284;2024-02-14T08:27:58;101016.13;;;9.78;92.81
163;BME280;3946;48.958;8.284;2024-02-14T08:30:44;101013.16;;;9.86;91.56
163;BME280;3946;48.958;8.284;2024-02-14T08:33:29;101016.13;;;9.95;92.13
163;BME280;3946;48.958;8.284;2024-02-14T08:36:14;101011.34;;;10.05;90.44
163;BME280;3946;48.958;8.284;2024-02-14T08:39:00;101010.41;;;10.06;91.17
163;BME280;3946;48.958;8.284;2024-02-14T08:41:46;101015.19;;;10.13;89.47
163;BME280;3946;48.958;8.284;2024-02-14T08:44:32;101008.75;;;10.22;89.42
163;BME280;3946;48.958;8.284;2024-02-14T08:47:18;101008.75;;;10.22;89.96
163;BME280;3946;48.958;8.284;2024-02-14T08:50:03;101007.50;;;10.29;89.79
163;BME280;3946;48.958;8.284;2024-02-14T08:52:49;101007.94;;;10.37;89.41
163;BME280;3946;48.958;8.284;2024-02-14T08:55:34;101020.09;;;10.52;88.95
163;BME280;3946;48.958;8.284;2024-02-14T08:58:22;101017.41;;;10.38;88.60
163;BME280;3946;48.958;8.284;2024-02-14T09:01:09;101012.09;;;10.40;88.53
163;BME280;3946;48.958;8.284;2024-02-14T09:03:57;101006.78;;;10.43;88.42
163;BME280;3946;48.958;8.284;2024-02-14T09:06:43;101009.06;;;10.49;88.67
163;BME280;3946;48.958;8.284;2024-02-14T09:09:28;101006.09;;;10.39;88.57
163;BME280;3946;48.958;8.284;2024-02-14T09:12:13;101002.88;;;10.51;88.03
163;BME280;3946;48.958;8.284;2024-02-14T09:14:59;101010.91;;;10.63;87.33
163;BME280;3946;48.958;8.284;2024-02-14T09:17:46;101004.81;;;10.79;87.12
163;BME280;3946;48.958;8.284;2024-02-14T09:20:31;101008.09;;;10.99;87.30
163;BME280;3946;48.958;8.284;2024-02-14T09:23:17;101012.50;;;10.81;88.27
163;BME280;3946;48.958;8.284;2024-02-14T09:26:04;101013.19;;;10.84;89.25
163;BME280;3946;48.958;8.284;2024-02-14T09:28:49;101012.75;;;10.92;89.47
163;BME280;3946;48.958;8.284;2024-02-14T09:31:35;101006.06;;;10.72;90.62
163;BME280;3946;48.958;8.284;2024-02-14T09:34:21;100998.72;;;10.65;91.37
163;BME280;3946;48.958;8.284;2024-02-14T09:37:07;100997.94;;;10.63;90.19
163;BME280;3946;48.958;8.284;2024-02-14T09:39:53;100999.38;;;10.68;91.17
163;BME280;3946;48.958;8.284;2024-02-14T09:42:43;100977.16;;;10.80;90.21
163;BME280;3946;48.958;8.284;2024-02-14T09:45:30;100990.69;;;11.01;88.73
163;BME280;3946;48.958;8.284;2024-02-14T09:48:18;100998.97;;;10.92;88.63
163;BME280;3946;48.958;8.284;2024-02-14T09:51:07;100976.81;;;11.02;88.39
163;BME280;3946;48.958;8.284;2024-02-14T09:53:53;100993.28;;;11.16;88.54
163;BME280;3946;48.958;8.284;2024-02-14T09:56:39;100993.59;;;11.26;87.29
163;BME280;3946;48.958;8.284;2024-02-14T09:59:24;100978.84;;;11.27;86.89
163;BME280;3946;48.958;8.284;2024-02-14T10:02:09;100988.03;;;11.48;87.10
163;BME280;3946;48.958;8.284;2024-02-14T10:04:55;100992.00;;;11.53;85.79
163;BME280;3946;48.958;8.284;2024-02-14T10:07:42;100990.19;;;11.70;85.78
163;BME280;3946;48.958;8.284;2024-02-14T10:10:28;100994.44;;;11.86;84.13
163;BME280;3946;48.958;8.284;2024-02-14T10:13:15;101002.34;;;11.69;84.89
163;BME280;3946;48.958;8.284;2024-02-14T10:16:00;100996.41;;;11.83;83.88
163;BME280;3946;48.958;8.284;2024-02-14T10:18:47;101006.22;;;11.78;84.55
163;BME280;3946;48.958;8.284;2024-02-14T10:21:34;101013.03;;;11.95;84.53
163;BME280;3946;48.958;8.284;2024-02-14T10:24:20;101013.28;;;12.04;83.59
163;BME280;3946;48.958;8.284;2024-02-14T10:27:11;101022.84;;;12.04;83.47
163;BME280;3946;48.958;8.284;2024-02-14T10:29:56;101023.22;;;11.98;84.86
163;BME280;3946;48.958;8.284;2024-02-14T10:32:42;101024.69;;;12.02;84.22
163;BME280;3946;48.958;8.284;2024-02-14T10:35:31;101033.13;;;11.91;84.87
163;BME280;3946;48.958;8.284;2024-02-14T10:38:17;101035.56;;;11.94;84.90
163;BME280;3946;48.958;8.284;2024-02-14T10:41:05;101035.72;;;11.91;84.94
163;BME280;3946;48.958;8.284;2024-02-14T10:43:51;101043.34;;;11.94;85.94
163;BME280;3946;48.958;8.284;2024-02-14T10:46:37;101036.91;;;12.30;84.74
163;BME280;3946;48.958;8.284;2024-02-14T10:49:25;101032.56;;;12.30;83.89
163;BME280;3946;48.958;8.284;2024-02-14T10:52:14;101035.25;;;12.43;84.05
163;BME280;3946;48.958;8.284;2024-02-14T10:55:02;101043.03;;;12.29;85.01
163;BME280;3946;48.958;8.284;2024-02-14T10:57:50;101046.81;;;12.23;85.56
163;BME280;3946;48.958;8.284;2024-02-14T11:00:36;101036.25;;;12.40;85.19
163;BME280;3946;48.958;8.284;2024-02-14T11:03:23;101043.50;;;12.49;85.55
163;BME280;3946;48.958;8.284;2024-02-14T11:06:16;101039.78;;;12.39;85.43
163;BME280;3946;48.958;8.284;2024-02-14T11:09:02;101048.50;;;12.52;85.99
163;BME280;3946;48.958;8.284;2024-02-14T11:12:00;101036.16;;;12.56;86.18
163;BME280;3946;48.958;8.284;2024-02-14T11:14:47;101026.16;;;12.64;84.77
163;BME280;3946;48.958;8.284;2024-02-14T11:17:37;101024.44;;;12.77;84.67
163;BME280;3946;48.958;8.284;2024-02-14T11:20:31;101017.31;;;12.81;84.90
163;BME280;3946;48.958;8.284;2024-02-14T11:23:21;101013.25;;;13.04;83.81
163;BME280;3946;48.958;8.284;2024-02-14T11:26:06;101018.97;;;13.23;84.00
163;BME280;3946;48.958;8.284;2024-02-14T11:28:59;101015.56;;;13.62;83.16
163;BME280;3946;48.958;8.284;2024-02-14T11:31:47;101008.47;;;13.64;82.97
163;BME280;3946;48.958;8.284;2024-02-14T11:34:32;101003.81;;;13.69;82.65
163;BME280;3946;48.958;8.284;2024-02-14T11:37:19;101010.41;;;13.48;83.50
163;BME280;3946;48.958;8.284;2024-02-14T11:40:06;101019.22;;;13.59;83.41
163;BME280;3946;48.958;8.284;2024-02-14T11:42:52;101011.06;;;13.64;85.15
163;BME280;3946;48.958;8.284;2024-02-14T11:45:37;101014.97;;;13.84;84.71
163;BME280;3946;48.958;8.284;2024-02-14T11:48:28;101024.69;;;13.94;84.50
163;BME280;3946;48.958;8.284;2024-02-14T11:51:14;101016.44;;;14.13;83.95
163;BME280;3946;48.958;8.284;2024-02-14T11:54:00;101021.25;;;14.07;84.28
163;BME280;3946;48.958;8.284;2024-02-14T11:56:48;101016.16;;;14.18;83.89
163;BME280;3946;48.958;8.284;2024-02-14T11:59:34;101011.88;;;14.17;84.00
163;BME280;3946;48.958;8.284;2024-02-14T12:02:20;100998.34;;;14.12;83.71
163;BME280;3946;48.958;8.284;2024-02-14T12:05:06;101003.97;;;14.06;85.38
163;BME280;3946;48.958;8.284;2024-02-14T12:07:52;100996.75;;;14.34;84.72
163;BME280;3946;48.958;8.284;2024-02-14T12:10:37;101002.47;;;14.01;85.90
163;BME280;3946;48.958;8.284;2024-02-14T12:13:23;101005.09;;;14.01;86.64
163;BME280;3946;48.958;8.284;2024-02-14T12:16:10;101000.91;;;13.99;86.97
163;BME280;3946;48.958;8.284;2024-02-14T12:19:14;101003.75;;;14.09;87.02
163;BME280;3946;48.958;8.284;2024-02-14T12:22:01;100998.75;;;13.93;87.65
163;BME280;3946;48.958;8.284;2024-02-14T12:24:46;100995.16;;;13.81;87.53
163;BME280;3946;48.958;8.284;2024-02-14T12:27:33;101000.28;;;13.83;87.91
163;BME280;3946;48.958;8.284;2024-02-14T12:30:18;100988.09;;;13.71;88.23
163;BME280;3946;48.958;8.284;2024-02-14T12:33:06;100996.09;;;13.68;89.05
163;BME280;3946;48.958;8.284;2024-02-14T12:35:54;100982.97;;;13.82;88.03
163;BME280;3946;48.958;8.284;2024-02-14T12:38:42;100989.84;;;13.83;87.71
163;BME280;3946;48.958;8.284;2024-02-14T12:41:29;100994.66;;;13.89;87.75
163;BME280;3946;48.958;8.284;2024-02-14T12:44:14;100993.28;;;13.83;88.64
163;BME280;3946;48.958;8.284;2024-02-14T12:46:59;100987.44;;;13.67;89.54
163;BME280;3946;48.958;8.284;2024-02-14T12:49:45;100980.56;;;13.66;90.62
163;BME280;3946;48.958;8.284;2024-02-14T12:52:31;100979.34;;;13.84;90.03
163;BME280;3946;48.958;8.284;2024-02-14T12:55:19;100990.19;;;13.78;89.15
163;BME280;3946;48.958;8.284;2024-02-14T12:58:04;100981.50;;;13.65;90.58
163;BME280;3946;48.958;8.284;2024-02-14T13:00:49;100990.97;;;13.66;91.15
163;BME280;3946;48.958;8.284;2024-02-14T13:03:35;100987.59;;;13.39;91.90
163;BME280;3946;48.958;8.284;2024-02-14T13:06:20;100979.25;;;13.34;92.55
163;BME280;3946;48.958;8.284;2024-02-14T13:09:06;100979.03;;;13.37;92.79
163;BME280;3946;48.958;8.284;2024-02-14T13:11:53;100979.72;;;13.53;92.11
163;BME280;3946;48.958;8.284;2024-02-14T13:14:39;100977.22;;;13.64;91.79
163;BME280;3946;48.958;8.284;2024-02-14T13:17:25;100970.03;;;13.55;91.70
163;BME280;3946;48.958;8.284;2024-02-14T13:20:11;100969.31;;;13.65;91.83
163;BME280;3946;48.958;8.284;2024-02-14T13:22:56;100973.00;;;13.76;91.50
163;BME280;3946;48.958;8.284;2024-02-14T13:25:42;100964.94;;;13.53;92.32
163;BME280;3946;48.958;8.284;2024-02-14T13:28:29;100964.81;;;13.55;93.44
163;BME280;3946;48.958;8.284;2024-02-14T13:31:14;100967.44;;;13.55;93.55
163;BME280;3946;48.958;8.284;2024-02-14T13:34:00;100976.81;;;13.57;93.68
163;BME280;3946;48.958;8.284;2024-02-14T13:36:47;100965.13;;;13.50;94.29
163;BME280;3946;48.958;8.284;2024-02-14T13:39:32;100964.44;;;13.74;93.65
163;BME280;3946;48.958;8.284;2024-02-14T13:42:18;100955.69;;;13.75;94.06
163;BME280;3946;48.958;8.284;2024-02-14T13:45:05;100951.63;;;13.71;93.84
163;BME280;3946;48.958;8.284;2024-02-14T13:48:02;100957.34;;;14.01;92.85
163;BME280;3946;48.958;8.284;2024-02-14T13:50:48;100947.34;;;13.82;92.78
163;BME280;3946;48.958;8.284;2024-02-14T13:53:35;100956.22;;;13.80;93.17
163;BME280;3946;48.958;8.284;2024-02-14T13:56:21;100958.69;;;13.81;92.33
163;BME280;3946;48.958;8.284;2024-02-14T13:59:07;100962.38;;;13.79;94.33
163;BME280;3946;48.958;8.284;2024-02-14T14:01:53;100953.63;;;13.80;93.54
163;BME280;3946;48.958;8.284;2024-02-14T14:04:38;100964.75;;;13.82;92.87
163;BME280;3946;48.958;8.284;2024-02-14T14:07:24;100966.59;;;13.67;94.33
163;BME280;3946;48.958;8.284;2024-02-14T14:10:09;100963.16;;;13.66;95.06
163;BME280;3946;48.958;8.284;2024-02-14T14:12:55;100959.13;;;13.75;95.22
163;BME280;3946;48.958;8.284;2024-02-14T14:15:41;100957.56;;;13.73;95.30
163;BME280;3946;48.958;8.284;2024-02-14T14:18:27;100953.28;;;13.84;94.56
163;BME280;3946;48.958;8.284;2024-02-14T14:21:13;100956.63;;;13.74;94.92
163;BME280;3946;48.958;8.284;2024-02-14T14:23:59;100956.81;;;13.71;95.37
163;BME280;3946;48.958;8.284;2024-02-14T14:26:46;100947.88;;;13.75;95.45
163;BME280;3946;48.958;8.284;2024-02-14T14:29:31;100951.72;;;13.69;96.06
163;BME280;3946;48.958;8.284;2024-02-14T14:32:16;100946.81;;;13.64;96.19
163;BME280;3946;48.958;8.284;2024-02-14T14:35:03;100956.81;;;13.71;95.83
163;BME280;3946;48.958;8.284;2024-02-14T14:37:50;100953.38;;;13.70;95.48
163;BME280;3946;48.958;8.284;2024-02-14T14:40:38;100951.31;;;13.75;96.17
163;BME280;3946;48.958;8.284;2024-02-14T14:43:23;100959.13;;;13.75;96.69
163;BME280;3946;48.958;8.284;2024-02-14T14:46:08;100951.41;;;13.74;96.63
163;BME280;3946;48.958;8.284;2024-02-14T14:48:55;100946.94;;;13.76;96.50
163;BME280;3946;48.958;8.284;2024-02-14T14:51:42;100945.56;;;13.70;97.08
163;BME280;3946;48.958;8.284;2024-02-14T14:54:27;100946.81;;;13.64;97.84
163;BME280;3946;48.958;8.284;2024-02-14T14:57:12;100951.50;;;13.59;98.00
163;BME280;3946;48.958;8.284;2024-02-14T14:59:59;100950.88;;;13.56;98.59
163;BME280;3946;48.958;8.284;2024-02-14T15:02:45;100952.53;;;13.57;98.96
163;BME280;3946;48.958;8.284;2024-02-14T15:05:30;100948.16;;;13.57;99.10
163;BME280;3946;48.958;8.284;2024-02-14T15:08:17;100949.09;;;13.44;100.00